Reese AFB, Texas
Current Conditions -  °F | °C
As of 2:53 PM on Thursday 18 Dec 2014 (Local Time) from KLBB Reporting Station
Broken Clouds Broken Clouds  
Wind Chill: 56°   Ceiling: 30000
Heat Index: 56°   Visibility: 10mi
Dew Point: 31°   Wind: 5mph
Humidity: 39%   Direction: 60°ENE
Pressure: 30.04"   Gusts: NA
Location:  33.59°N, 102.03°W
Report Text: KLBB 182053Z 06004KT 10SM FEW150 SCT260 BKN300 13/M01 A3004 RMK AO2 SLP162 T01331006 56023
Loading
Personal Weather Stations






























Interactive Weather Map New forecast layout! Learn more

10-Day Weather Forecast

Advertisements
Track Severe Weather on mobile